Time;durP1;ratioP1;P1;durP2;ratioP2;P2;SDS_P1;SDS_P2;PMS_P1;PMS_P2;Temp;Humidity;BMP_temperature;BMP_pressure;BME280_temperature;BME280_humidity;BME280_pressure;Samples;Min_cycle;Max_cycle;Signal;HPM_P1;HPM_P2
2022/05/10 00:02:02;;;;;;;30.27;27.90;;;21.00;57.20;;;;;;5026276;28;20398;-81
2022/05/10 00:04:28;;;;;;;29.55;27.50;;;21.10;57.20;;;;;;5029638;28;20490;-81
2022/05/10 00:06:55;;;;;;;29.67;27.75;;;21.00;57.20;;;;;;5027416;28;20025;-81
2022/05/10 00:09:22;;;;;;;29.83;27.83;;;21.00;57.40;;;;;;5047049;28;20049;-81
2022/05/10 00:11:48;;;;;;;30.00;28.00;;;20.90;57.70;;;;;;5027428;28;20025;-81
2022/05/10 00:14:14;;;;;;;29.35;27.50;;;20.90;57.90;;;;;;5013051;28;20049;-81
2022/05/10 00:16:41;;;;;;;29.30;27.30;;;20.90;57.90;;;;;;5033424;28;20053;-81
2022/05/10 00:19:10;;;;;;;29.52;27.42;;;20.90;58.20;;;;;;5025008;28;20026;-81
2022/05/10 00:21:36;;;;;;;29.75;27.77;;;20.80;58.30;;;;;;5029737;28;20045;-81
2022/05/10 00:24:02;;;;;;;30.08;27.92;;;20.80;58.50;;;;;;5044096;28;20399;-81
2022/05/10 00:26:28;;;;;;;30.25;28.27;;;20.70;58.60;;;;;;5029058;28;20034;-81
2022/05/10 00:28:54;;;;;;;31.60;29.45;;;20.70;58.80;;;;;;5012639;28;20053;-81
2022/05/10 00:31:20;;;;;;;32.67;30.05;;;20.70;59.00;;;;;;5042198;28;20046;-81
2022/05/10 00:33:46;;;;;;;29.73;27.67;;;20.70;59.00;;;;;;5012836;28;20033;-81
2022/05/10 00:36:13;;;;;;;30.08;28.17;;;20.70;59.30;;;;;;5016921;28;20049;-81
2022/05/10 00:38:40;;;;;;;30.92;28.73;;;20.70;59.60;;;;;;5029615;28;20021;-81
2022/05/10 00:41:29;;;;;;;29.10;27.13;;;20.70;59.80;;;;;;5032135;28;20025;-81
2022/05/10 00:44:19;;;;;;;29.38;27.20;;;20.60;59.90;;;;;;5026392;28;20048;-81
2022/05/10 00:46:51;;;;;;;29.70;27.63;;;20.60;60.10;;;;;;5030741;28;20033;-81
2022/05/10 00:49:29;;;;;;;29.25;27.13;;;20.60;60.30;;;;;;5028240;28;20033;-81
2022/05/10 00:52:05;;;;;;;30.35;28.27;;;20.50;60.50;;;;;;5031080;28;20045;-81
2022/05/10 00:54:56;;;;;;;29.95;27.95;;;20.50;60.80;;;;;;5045333;28;20021;-81
2022/05/10 00:57:34;;;;;;;28.77;26.97;;;20.40;60.90;;;;;;5034255;28;20052;-81
2022/05/10 01:00:06;;;;;;;29.55;27.48;;;20.40;61.00;;;;;;5016517;28;20033;-81
2022/05/10 01:02:54;;;;;;;29.40;27.10;;;20.40;61.10;;;;;;5012438;28;20037;-81
2022/05/10 01:05:40;;;;;;;29.92;27.88;;;20.40;60.80;;;;;;5032938;28;20038;-81
2022/05/10 01:08:21;;;;;;;30.35;28.30;;;20.40;60.90;;;;;;5027748;28;20037;-81
2022/05/10 01:11:16;;;;;;;29.13;27.33;;;20.40;61.10;;;;;;5052555;28;20486;-81
2022/05/10 01:14:00;;;;;;;29.65;27.75;;;20.40;61.30;;;;;;5014598;28;20123;-81
2022/05/10 01:16:26;;;;;;;29.67;27.67;;;20.40;61.20;;;;;;5030957;28;20064;-81
2022/05/10 01:18:52;;;;;;;28.60;26.73;;;20.40;61.10;;;;;;5029930;28;20026;-81
2022/05/10 01:21:47;;;;;;;28.05;26.23;;;20.40;61.10;;;;;;5013773;28;20045;-81
2022/05/10 01:24:45;;;;;;;29.90;27.65;;;20.30;61.40;;;;;;5012516;28;20406;-81
2022/05/10 01:27:40;;;;;;;28.75;26.90;;;20.30;61.70;;;;;;5026807;28;20052;-81
2022/05/10 01:30:15;;;;;;;29.55;27.67;;;20.20;61.80;;;;;;5032498;28;20030;-81
2022/05/10 01:35:50;;;;;;;28.83;26.58;;;20.20;61.50;;;;;;5029455;28;20117;-81
2022/05/10 01:38:31;;;;;;;27.88;26.15;;;20.20;61.80;;;;;;5011562;28;20061;-81
2022/05/10 01:41:12;;;;;;;28.67;26.70;;;20.20;61.80;;;;;;5023890;28;20037;-81
2022/05/10 01:43:44;;;;;;;28.90;26.90;;;20.20;61.90;;;;;;5028801;28;20024;-81
2022/05/10 01:46:12;;;;;;;28.52;26.67;;;20.20;61.70;;;;;;5027778;28;20053;-81
2022/05/10 01:48:38;;;;;;;27.75;25.95;;;20.20;61.60;;;;;;5029684;28;20034;-81
2022/05/10 01:51:14;;;;;;;28.23;26.35;;;20.20;61.70;;;;;;5059438;28;20057;-82
2022/05/10 01:53:40;;;;;;;29.25;27.13;;;20.20;61.80;;;;;;5058387;28;20044;-81
2022/05/10 01:56:12;;;;;;;28.48;26.27;;;20.20;62.00;;;;;;5027914;28;20037;-81
2022/05/10 01:58:39;;;;;;;28.13;25.95;;;20.10;62.00;;;;;;5025956;28;20064;-81
2022/05/10 02:01:30;;;;;;;28.00;26.15;;;20.10;62.00;;;;;;5029195;28;20056;-81
2022/05/10 02:04:03;;;;;;;28.83;26.63;;;20.10;62.20;;;;;;5026823;28;20415;-82
2022/05/10 02:06:43;;;;;;;29.30;26.95;;;20.10;62.20;;;;;;5044319;28;20026;-81
2022/05/10 02:09:18;;;;;;;29.20;27.20;;;20.20;62.20;;;;;;5028753;28;20378;-81
2022/05/10 02:11:48;;;;;;;29.58;27.42;;;20.20;62.40;;;;;;5032235;28;20044;-81
2022/05/10 02:14:22;;;;;;;28.85;26.90;;;20.20;62.30;;;;;;5032730;28;20034;-82
2022/05/10 02:16:54;;;;;;;28.80;26.83;;;20.20;62.30;;;;;;5015592;28;20075;-82
2022/05/10 02:19:23;;;;;;;29.67;27.42;;;20.10;62.60;;;;;;5027480;28;20029;-82
2022/05/10 02:21:55;;;;;;;28.92;27.02;;;20.10;62.70;;;;;;5029250;28;20033;-82
2022/05/10 02:24:27;;;;;;;29.42;27.35;;;20.20;63.00;;;;;;5031830;28;20026;-82
2022/05/10 02:26:59;;;;;;;29.60;27.60;;;20.10;62.80;;;;;;5031623;28;20033;-81
2022/05/10 02:29:38;;;;;;;29.15;27.35;;;20.20;64.00;;;;;;5034725;28;20049;-82
2022/05/10 02:35:12;;;;;;;28.90;26.90;;;20.10;63.20;;;;;;5000806;28;20050;-82
2022/05/10 02:37:38;;;;;;;30.13;27.98;;;20.10;63.10;;;;;;4977422;28;20399;-81
2022/05/10 02:40:05;;;;;;;28.23;26.45;;;20.10;63.60;;;;;;5007658;28;20479;-81
2022/05/10 02:42:31;;;;;;;29.02;27.02;;;20.10;63.40;;;;;;5010177;28;20057;-81
2022/05/10 02:44:57;;;;;;;27.95;26.25;;;20.00;63.30;;;;;;4994413;28;20050;-81
2022/05/10 02:47:32;;;;;;;28.98;26.83;;;20.00;63.60;;;;;;4988406;28;20133;-81
2022/05/10 02:49:58;;;;;;;28.20;26.33;;;20.00;63.90;;;;;;4996654;28;20042;-81
2022/05/10 02:52:24;;;;;;;29.13;27.02;;;20.00;63.90;;;;;;4988063;28;20084;-81
2022/05/10 02:55:02;;;;;;;28.20;26.30;;;19.90;63.90;;;;;;5007846;28;20034;-81
2022/05/10 02:57:28;;;;;;;30.92;28.88;;;19.90;64.40;;;;;;5006029;28;20045;-81
2022/05/10 02:59:56;;;;;;;31.10;29.10;;;19.90;65.00;;;;;;5006724;28;20538;-81
2022/05/10 03:02:24;;;;;;;30.48;28.30;;;19.90;64.30;;;;;;4977154;28;20537;-80
2022/05/10 03:04:51;;;;;;;31.48;29.25;;;19.90;64.40;;;;;;4978458;28;20069;-78
2022/05/10 03:07:17;;;;;;;30.63;28.73;;;19.90;64.20;;;;;;5015276;28;20025;-80
2022/05/10 03:09:44;;;;;;;32.75;30.35;;;19.90;64.40;;;;;;4980752;28;20050;-76
2022/05/10 03:12:10;;;;;;;31.10;29.20;;;19.90;64.10;;;;;;5031463;28;20370;-76
2022/05/10 03:14:36;;;;;;;30.15;28.15;;;19.90;64.10;;;;;;5062380;28;20474;-77
2022/05/10 03:17:04;;;;;;;30.95;28.77;;;19.80;65.10;;;;;;5028706;28;20049;-77
2022/05/10 03:19:31;;;;;;;31.45;29.25;;;19.80;64.40;;;;;;5026162;28;20029;-77
2022/05/10 03:21:57;;;;;;;31.25;29.20;;;19.80;64.50;;;;;;5028841;28;20036;-77
2022/05/10 03:24:23;;;;;;;30.33;28.40;;;19.70;64.50;;;;;;5028687;28;20033;-77
2022/05/10 03:26:51;;;;;;;29.63;27.70;;;19.70;64.50;;;;;;5027831;28;20493;-77
2022/05/10 03:29:17;;;;;;;29.73;27.70;;;19.70;64.80;;;;;;5013156;28;20041;-77
2022/05/10 03:31:43;;;;;;;31.80;29.50;;;19.70;64.60;;;;;;5028419;28;20037;-76
2022/05/10 03:36:54;;;;;;;30.75;28.75;;;19.60;65.00;;;;;;5034561;28;20072;-77
2022/05/10 03:39:20;;;;;;;30.52;28.52;;;19.60;64.50;;;;;;5023481;28;20037;-76
2022/05/10 03:41:46;;;;;;;31.33;29.02;;;19.60;64.70;;;;;;5035160;28;20025;-76
2022/05/10 03:44:12;;;;;;;30.23;28.33;;;19.60;64.90;;;;;;5030068;28;20033;-77
2022/05/10 03:46:39;;;;;;;30.17;27.80;;;19.50;64.90;;;;;;5027568;28;20037;-77
2022/05/10 03:49:05;;;;;;;30.42;28.40;;;19.50;64.90;;;;;;5032563;28;20364;-76
2022/05/10 03:51:31;;;;;;;30.45;28.55;;;19.50;65.00;;;;;;5025769;28;20038;-76
2022/05/10 03:53:58;;;;;;;30.55;28.50;;;19.50;65.10;;;;;;5026563;28;20470;-79
2022/05/10 03:56:24;;;;;;;30.15;28.15;;;19.50;65.00;;;;;;5026265;28;20041;-80
2022/05/10 03:58:50;;;;;;;30.63;28.52;;;19.40;64.80;;;;;;5027307;28;20033;-80
2022/05/10 04:01:19;;;;;;;29.92;27.92;;;19.40;64.90;;;;;;5025392;28;20034;-79
2022/05/10 04:03:46;;;;;;;30.38;28.25;;;19.40;65.00;;;;;;5027089;28;20041;-79
2022/05/10 04:06:12;;;;;;;30.90;28.70;;;19.30;65.10;;;;;;5032679;28;20025;-79
2022/05/10 04:08:38;;;;;;;30.45;28.35;;;19.40;65.30;;;;;;5030912;28;20504;-79
2022/05/10 04:11:06;;;;;;;30.08;28.17;;;19.40;65.00;;;;;;5032816;28;20030;-79
2022/05/10 04:13:32;;;;;;;30.60;28.48;;;19.30;65.10;;;;;;5031405;28;20371;-79
2022/05/10 04:15:58;;;;;;;31.08;29.00;;;19.30;65.00;;;;;;5031733;28;20064;-79
2022/05/10 04:18:25;;;;;;;30.25;28.33;;;19.30;65.20;;;;;;5033164;28;20025;-79
2022/05/10 04:20:51;;;;;;;31.73;29.42;;;19.30;65.20;;;;;;5031757;28;20048;-79
2022/05/10 04:23:17;;;;;;;32.38;29.75;;;19.30;65.30;;;;;;5032379;28;20033;-79
2022/05/10 04:25:43;;;;;;;32.42;30.05;;;19.20;65.40;;;;;;5031314;28;20044;-79
2022/05/10 04:28:10;;;;;;;31.23;28.65;;;19.20;65.50;;;;;;5032449;28;20390;-79
2022/05/10 04:30:36;;;;;;;31.92;29.73;;;19.20;65.40;;;;;;5031639;28;20052;-79
2022/05/10 04:33:02;;;;;;;30.65;28.55;;;19.10;65.40;;;;;;5031541;28;20025;-79
2022/05/10 04:35:28;;;;;;;30.13;28.02;;;19.10;65.40;;;;;;5031074;28;20490;-79
2022/05/10 04:37:54;;;;;;;30.88;28.85;;;19.10;65.40;;;;;;5032563;28;20498;-79
2022/05/10 04:43:05;;;;;;;30.92;28.83;;;19.00;65.50;;;;;;5036287;28;20037;-79
2022/05/10 04:45:32;;;;;;;30.90;28.80;;;19.00;65.30;;;;;;5032240;28;20034;-79
2022/05/10 04:47:58;;;;;;;30.20;27.90;;;19.10;65.50;;;;;;5031536;28;20032;-79
2022/05/10 04:50:24;;;;;;;29.35;27.25;;;19.00;65.50;;;;;;5030495;28;20029;-79
2022/05/10 04:52:50;;;;;;;29.67;27.33;;;19.00;65.80;;;;;;5029786;28;20045;-79
2022/05/10 04:55:16;;;;;;;28.75;26.77;;;19.00;65.50;;;;;;5031060;28;20033;-79
2022/05/10 04:57:43;;;;;;;30.17;27.98;;;19.00;65.60;;;;;;5031857;28;20041;-79
2022/05/10 05:00:11;;;;;;;29.27;27.38;;;18.90;65.70;;;;;;5043708;28;20037;-79
2022/05/10 05:02:37;;;;;;;29.58;27.60;;;18.90;65.80;;;;;;5044243;28;20022;-79
2022/05/10 05:05:04;;;;;;;29.27;27.13;;;18.90;65.90;;;;;;5031362;28;20041;-79
2022/05/10 05:07:30;;;;;;;30.13;27.60;;;18.90;66.00;;;;;;5030777;28;20040;-79
2022/05/10 05:09:56;;;;;;;29.92;27.92;;;18.80;65.90;;;;;;5031154;28;20037;-79
2022/05/10 05:12:22;;;;;;;28.85;26.75;;;18.90;66.10;;;;;;5045345;28;20026;-79
2022/05/10 05:14:48;;;;;;;31.60;29.10;;;18.90;65.90;;;;;;5062959;28;20030;-79
2022/05/10 05:17:16;;;;;;;31.55;29.15;;;18.90;66.10;;;;;;5020048;28;20042;-79
2022/05/10 05:19:42;;;;;;;32.15;29.58;;;18.90;66.30;;;;;;5029377;28;20036;-79
2022/05/10 05:22:08;;;;;;;32.20;29.73;;;18.90;66.30;;;;;;5030831;28;20022;-79
2022/05/10 05:24:34;;;;;;;30.60;28.50;;;18.90;66.30;;;;;;5032970;28;20037;-79
2022/05/10 05:27:00;;;;;;;30.58;28.48;;;18.90;66.60;;;;;;5043240;28;20049;-79
2022/05/10 05:29:27;;;;;;;30.60;28.40;;;18.90;66.30;;;;;;5030069;28;20025;-79
2022/05/10 05:31:53;;;;;;;30.13;28.02;;;19.00;66.30;;;;;;5030472;28;20063;-79
2022/05/10 05:34:19;;;;;;;30.92;28.73;;;19.00;66.50;;;;;;5030396;28;20470;-80
2022/05/10 05:37:32;;;;;;;28.83;26.90;;;19.10;66.50;;;;;;5014500;28;20061;-80
2022/05/10 05:39:31;;;;;;;29.75;27.67;;;19.10;66.50;;;;;;5056025;28;20021;-80
2022/05/10 05:41:57;;;;;;;32.10;29.75;;;19.10;66.70;;;;;;5046315;28;20509;-80
2022/05/10 05:44:23;;;;;;;28.83;26.67;;;19.20;66.70;;;;;;5028419;28;20040;-80
2022/05/10 05:46:50;;;;;;;31.75;29.55;;;19.20;66.60;;;;;;5020810;28;20036;-77
2022/05/10 05:49:16;;;;;;;32.22;29.92;;;19.20;66.70;;;;;;5032069;28;20034;-75
2022/05/10 05:51:42;;;;;;;30.88;28.88;;;19.30;66.80;;;;;;5034943;28;20048;-77
2022/05/10 05:54:10;;;;;;;32.33;30.02;;;19.30;66.80;;;;;;5063199;28;20045;-79
2022/05/10 05:56:36;;;;;;;32.22;29.65;;;19.30;66.70;;;;;;5030614;28;20128;-77
2022/05/10 05:59:02;;;;;;;32.25;29.48;;;19.30;67.20;;;;;;5031449;28;20398;-81
2022/05/10 06:01:28;;;;;;;32.38;29.80;;;19.40;67.10;;;;;;5042504;28;20386;-77
2022/05/10 06:03:58;;;;;;;32.03;29.83;;;19.40;66.80;;;;;;5030696;28;20053;-77
2022/05/10 06:06:25;;;;;;;33.05;30.73;;;19.50;66.90;;;;;;5036788;28;20494;-76
2022/05/10 06:08:51;;;;;;;34.22;31.45;;;19.50;66.70;;;;;;5029158;28;20026;-75
2022/05/10 06:11:17;;;;;;;31.88;29.55;;;19.60;66.60;;;;;;5028513;28;20135;-76
2022/05/10 06:13:43;;;;;;;31.48;29.15;;;19.60;66.40;;;;;;5030204;28;20033;-76
2022/05/10 06:16:09;;;;;;;32.55;30.13;;;19.60;66.00;;;;;;5028583;28;20388;-75
2022/05/10 06:18:35;;;;;;;32.10;29.65;;;19.60;66.10;;;;;;5031507;28;20029;-76
2022/05/10 06:21:01;;;;;;;32.50;30.00;;;19.70;66.20;;;;;;5043139;28;20368;-76
2022/05/10 06:23:28;;;;;;;32.53;30.23;;;19.80;65.90;;;;;;5046570;28;20390;-76
2022/05/10 06:25:54;;;;;;;32.95;30.63;;;19.80;65.80;;;;;;5030113;28;20037;-77
2022/05/10 06:28:21;;;;;;;32.60;30.40;;;19.80;65.40;;;;;;5029667;28;20049;-76
2022/05/10 06:30:47;;;;;;;32.35;30.10;;;19.90;65.70;;;;;;5028559;28;20121;-76
2022/05/10 06:33:13;;;;;;;33.75;31.30;;;19.90;65.50;;;;;;5031679;28;20030;-77
2022/05/10 06:35:40;;;;;;;32.95;30.85;;;20.00;65.30;;;;;;5026962;28;20036;-76
2022/05/10 06:40:51;;;;;;;32.38;30.17;;;20.10;64.80;;;;;;5030976;28;20040;-75
2022/05/10 06:43:17;;;;;;;33.03;30.42;;;20.30;64.30;;;;;;5029570;28;20038;-76
2022/05/10 06:45:43;;;;;;;33.05;30.63;;;20.40;63.90;;;;;;5029025;28;20041;-77
2022/05/10 06:48:09;;;;;;;33.78;31.13;;;20.50;63.20;;;;;;5061306;28;20036;-77
2022/05/10 06:50:36;;;;;;;34.55;32.22;;;20.60;62.50;;;;;;5029049;28;20033;-77
2022/05/10 06:53:02;;;;;;;35.22;32.38;;;20.80;62.30;;;;;;5027923;28;20044;-75
2022/05/10 06:55:29;;;;;;;33.70;30.90;;;20.90;62.60;;;;;;5024071;28;20034;-75
2022/05/10 06:57:55;;;;;;;33.95;31.65;;;21.10;62.80;;;;;;5028647;28;20030;-78
2022/05/10 07:00:22;;;;;;;33.80;31.02;;;21.20;61.80;;;;;;5030112;28;20025;-78
2022/05/10 07:02:48;;;;;;;32.70;30.52;;;21.30;60.70;;;;;;5011303;28;20046;-77
2022/05/10 07:05:15;;;;;;;1999.90;999.90;;;21.50;60.10;;;;;;5028396;28;20025;-79
2022/05/10 07:07:41;;;;;;;1999.90;999.90;;;21.70;60.20;;;;;;5061878;28;20021;-82
2022/05/10 07:10:10;;;;;;;1999.90;999.90;;;21.90;59.60;;;;;;5027288;28;20044;-82
2022/05/10 07:12:37;;;;;;;1999.90;999.90;;;22.10;59.20;;;;;;5031954;28;20032;-78
2022/05/10 07:15:04;;;;;;;1999.90;999.90;;;22.40;59.20;;;;;;5029592;28;20030;-75
2022/05/10 07:17:30;;;;;;;1999.90;999.90;;;22.60;58.40;;;;;;5028577;28;20033;-79
2022/05/10 07:19:56;;;;;;;1999.90;999.90;;;22.80;57.60;;;;;;5027834;28;20386;-74
2022/05/10 07:22:22;;;;;;;1999.90;999.90;;;23.00;57.10;;;;;;5028550;28;20044;-76
2022/05/10 07:24:48;;;;;;;1999.90;999.90;;;23.00;57.50;;;;;;5028075;28;20048;-77
2022/05/10 07:27:14;;;;;;;1999.90;999.90;;;23.20;57.50;;;;;;5064058;28;20478;-77
2022/05/10 07:29:42;;;;;;;1999.90;999.90;;;23.40;57.30;;;;;;5011831;28;20049;-77
2022/05/10 07:32:09;;;;;;;1999.90;999.90;;;23.60;56.90;;;;;;5026554;28;20379;-78
2022/05/10 07:34:35;;;;;;;1999.90;999.90;;;23.70;56.60;;;;;;5024524;28;20029;-78
2022/05/10 07:37:01;;;;;;;1999.90;999.90;;;23.90;56.10;;;;;;5028316;28;20041;-79
2022/05/10 07:39:27;;;;;;;1999.90;999.90;;;24.00;55.80;;;;;;5030970;28;20033;-77
2022/05/10 07:41:54;;;;;;;1999.90;999.90;;;24.20;55.70;;;;;;5025697;28;20040;-79
2022/05/10 07:44:22;;;;;;;1999.90;999.90;;;24.40;55.40;;;;;;5029437;28;20037;-79
2022/05/10 07:46:49;;;;;;;1999.90;999.90;;;24.60;55.00;;;;;;5017943;28;20037;-79
2022/05/10 07:49:15;;;;;;;1999.90;999.90;;;24.70;54.50;;;;;;5022336;28;20089;-78
2022/05/10 07:51:41;;;;;;;1999.90;999.90;;;24.90;53.80;;;;;;5028212;28;20050;-77
2022/05/10 07:54:09;;;;;;;1999.90;999.90;;;25.00;53.50;;;;;;5018423;28;20108;-77
2022/05/10 07:56:37;;;;;;;1999.90;999.90;;;25.10;53.10;;;;;;5026687;28;20041;-80
2022/05/10 07:59:03;;;;;;;1999.90;999.90;;;25.10;52.90;;;;;;5029790;28;20490;-80
2022/05/10 08:01:30;;;;;;;1999.90;999.90;;;25.20;52.50;;;;;;5028312;28;20034;-80
2022/05/10 08:03:56;;;;;;;1999.90;999.90;;;25.30;52.50;;;;;;5028742;28;20025;-80
2022/05/10 08:06:22;;;;;;;1999.90;999.90;;;25.30;52.70;;;;;;5030486;28;20040;-80
2022/05/10 08:08:49;;;;;;;1999.90;999.90;;;25.50;52.80;;;;;;5028132;28;20025;-80
2022/05/10 08:11:15;;;;;;;1999.90;999.90;;;25.70;52.50;;;;;;5028553;28;20025;-80
2022/05/10 08:13:41;;;;;;;1999.90;999.90;;;25.90;51.20;;;;;;5030755;28;20032;-80
2022/05/10 08:16:08;;;;;;;1999.90;999.90;;;26.10;51.20;;;;;;5011464;28;20057;-80
2022/05/10 08:18:35;;;;;;;1999.90;999.90;;;26.30;49.50;;;;;;5029155;28;20056;-80
2022/05/10 08:21:01;;;;;;;1999.90;999.90;;;26.50;49.20;;;;;;5040711;28;20033;-80
2022/05/10 08:23:29;;;;;;;1999.90;999.90;;;26.70;48.40;;;;;;5018160;28;20033;-80
2022/05/10 08:25:56;;;;;;;1999.90;999.90;;;26.80;47.40;;;;;;5006401;28;20074;-80
2022/05/10 08:28:23;;;;;;;1999.90;999.90;;;26.80;46.20;;;;;;5028640;28;20029;-80
2022/05/10 08:30:49;;;;;;;1999.90;999.90;;;26.80;46.40;;;;;;5030607;28;20038;-80
2022/05/10 08:33:18;;;;;;;1999.90;999.90;;;27.00;45.20;;;;;;5031765;28;20049;-80
2022/05/10 08:35:44;;;;;;;1999.90;999.90;;;27.10;45.40;;;;;;5030903;28;20034;-80
2022/05/10 08:38:10;;;;;;;1999.90;999.90;;;27.20;45.70;;;;;;5030548;28;20509;-80
2022/05/10 08:40:40;;;;;;;1999.90;999.90;;;27.40;45.50;;;;;;5028306;28;20038;-82
2022/05/10 08:43:10;;;;;;;1999.90;999.90;;;27.50;45.20;;;;;;5025877;28;20022;-84
2022/05/10 08:45:38;;;;;;;26.67;24.87;;;27.60;43.70;;;;;;5028776;28;20029;-79
2022/05/10 08:48:05;;;;;;;26.65;25.15;;;27.50;42.20;;;;;;5028987;28;20033;-79
2022/05/10 08:50:31;;;;;;;26.17;24.52;;;27.60;43.30;;;;;;5025499;28;20033;-79
2022/05/10 08:52:57;;;;;;;26.45;24.85;;;27.70;42.20;;;;;;5024039;28;20041;-79
2022/05/10 08:55:27;;;;;;;26.15;24.30;;;27.90;42.10;;;;;;5030072;28;20044;-79
2022/05/10 08:57:57;;;;;;;28.50;26.77;;;27.90;41.70;;;;;;5031220;28;20042;-79
2022/05/10 09:00:26;;;;;;;26.67;24.77;;;27.80;40.10;;;;;;5049116;28;20049;-79
2022/05/10 09:02:56;;;;;;;1999.90;999.90;;;27.30;40.30;;;;;;5029945;28;20042;-79
2022/05/10 09:05:25;;;;;;;1999.90;999.90;;;27.00;41.20;;;;;;5027779;28;20025;-78
2022/05/10 09:07:57;;;;;;;1999.90;999.90;;;26.90;41.20;;;;;;5007404;28;20041;-78
2022/05/10 09:10:45;;;;;;;23.83;22.42;;;27.10;42.00;;;;;;5033084;28;20398;-78
2022/05/10 09:13:15;;;;;;;24.92;23.05;;;27.40;43.00;;;;;;5019602;28;20037;-78
2022/05/10 09:15:57;;;;;;;24.80;23.33;;;27.70;41.50;;;;;;5032019;28;20044;-78
2022/05/10 09:18:28;;;;;;;24.75;23.02;;;27.70;38.70;;;;;;5046434;28;20057;-78
2022/05/10 09:21:23;;;;;;;32.40;30.35;;;27.80;40.60;;;;;;5044385;28;20374;-78
2022/05/10 09:24:10;;;;;;;29.38;27.30;;;27.90;38.30;;;;;;5031436;28;20026;-82
2022/05/10 09:26:39;;;;;;;28.00;26.42;;;28.20;38.20;;;;;;5032433;28;20041;-82
2022/05/10 09:29:30;;;;;;;28.50;26.90;;;28.20;37.50;;;;;;5030285;28;20093;-78
2022/05/10 09:34:47;;;;;;;28.30;26.60;;;28.30;37.60;;;;;;5034691;28;20040;-78
2022/05/10 09:37:28;;;;;;;42.75;40.00;;;28.30;36.20;;;;;;5029783;28;20037;-78
2022/05/10 09:39:57;;;;;;;27.88;26.27;;;28.50;34.50;;;;;;5032452;28;20034;-78
2022/05/10 09:42:26;;;;;;;28.45;26.95;;;28.40;35.20;;;;;;5033188;28;20026;-78
2022/05/10 09:44:59;;;;;;;29.02;27.48;;;28.50;36.00;;;;;;5030359;28;20386;-78
2022/05/10 09:47:25;;;;;;;28.63;27.10;;;28.50;36.20;;;;;;5031205;28;20029;-78
2022/05/10 09:49:51;;;;;;;30.00;28.40;;;28.60;35.70;;;;;;5030395;28;20040;-78
2022/05/10 09:52:27;;;;;;;36.42;34.20;;;28.80;36.00;;;;;;5029176;28;20046;-78
2022/05/10 09:54:53;;;;;;;32.78;30.85;;;29.20;36.30;;;;;;5032013;28;20034;-78
2022/05/10 09:57:36;;;;;;;28.92;27.13;;;29.40;34.90;;;;;;5028408;28;20042;-78
2022/05/10 10:00:07;;;;;;;28.17;26.48;;;29.60;34.00;;;;;;5008361;28;20029;-78
2022/05/10 10:02:37;;;;;;;29.42;27.55;;;29.70;33.90;;;;;;5030520;28;20025;-78
2022/05/10 10:05:25;;;;;;;55.33;52.20;;;29.90;33.90;;;;;;5030206;28;20021;-78
2022/05/10 10:07:56;;;;;;;30.90;29.23;;;30.00;33.50;;;;;;5031132;28;20382;-78
2022/05/10 10:10:29;;;;;;;34.15;32.08;;;30.00;32.20;;;;;;5030128;28;20022;-78
2022/05/10 10:12:55;;;;;;;28.48;26.88;;;30.00;31.90;;;;;;5030427;28;20499;-78
2022/05/10 10:15:30;;;;;;;38.63;36.50;;;30.00;32.10;;;;;;5031730;28;20374;-78
2022/05/10 10:17:57;;;;;;;40.90;38.63;;;30.10;31.60;;;;;;5028108;28;20048;-78
2022/05/10 10:20:31;;;;;;;33.35;31.40;;;30.10;31.20;;;;;;5013135;28;20053;-76
2022/05/10 10:22:59;;;;;;;33.65;31.88;;;30.20;30.40;;;;;;5020740;28;20028;-76
2022/05/10 10:25:35;;;;;;;35.38;33.53;;;29.90;29.50;;;;;;5030297;28;20378;-77
2022/05/10 10:28:20;;;;;;;35.97;33.95;;;29.80;31.10;;;;;;5021061;28;20513;-77
2022/05/10 10:30:53;;;;;;;29.75;27.92;;;29.90;31.10;;;;;;5029579;28;20056;-77
2022/05/10 10:33:46;;;;;;;40.30;37.90;;;29.90;31.10;;;;;;5047807;28;20029;-77
2022/05/10 10:36:18;;;;;;;30.00;28.23;;;30.10;32.10;;;;;;5030336;28;20042;-77
2022/05/10 10:38:56;;;;;;;33.47;31.60;;;30.30;30.70;;;;;;5028275;28;20040;-76
2022/05/10 10:41:35;;;;;;;39.65;37.05;;;30.40;30.10;;;;;;5029426;28;20482;-77
2022/05/10 10:44:20;;;;;;;30.23;28.42;;;30.40;30.60;;;;;;5014613;28;20046;-77
2022/05/10 10:47:08;;;;;;;49.30;46.35;;;30.50;30.90;;;;;;5031570;28;20041;-78
2022/05/10 10:49:49;;;;;;;34.53;32.63;;;30.60;30.70;;;;;;5022886;28;20025;-77
2022/05/10 10:52:17;;;;;;;36.95;34.85;;;30.50;30.70;;;;;;5016879;28;20049;-77
2022/05/10 10:54:43;;;;;;;34.30;32.42;;;30.50;30.30;;;;;;5029657;28;20036;-77
2022/05/10 10:57:54;;;;;;;38.35;35.97;;;30.60;31.00;;;;;;5026448;28;20408;-77
2022/05/10 11:00:23;;;;;;;46.25;43.67;;;30.80;30.80;;;;;;4987197;28;20046;-77
2022/05/10 11:02:54;;;;;;;39.42;37.10;;;30.80;31.40;;;;;;4951819;28;20042;-76
2022/05/10 11:05:47;;;;;;;43.15;40.60;;;30.80;30.90;;;;;;4963557;28;20314;-75
2022/05/10 11:08:31;;;;;;;40.55;38.25;;;30.80;31.80;;;;;;4949976;28;20435;-76
2022/05/10 11:11:15;;;;;;;46.30;43.47;;;30.70;31.40;;;;;;4967432;28;20484;-75
2022/05/10 11:14:10;;;;;;;37.17;35.17;;;30.80;30.70;;;;;;4971003;28;20369;-75
2022/05/10 11:16:47;;;;;;;34.28;32.47;;;30.70;29.40;;;;;;4966575;28;20050;-75
2022/05/10 11:19:17;;;;;;;40.38;37.53;;;30.70;31.10;;;;;;4958290;28;20522;-74
2022/05/10 11:22:07;;;;;;;33.92;31.88;;;30.70;31.60;;;;;;4968799;28;20038;-75
2022/05/10 11:25:06;;;;;;;37.20;34.75;;;30.80;30.40;;;;;;4967304;28;20047;-75
2022/05/10 11:28:05;;;;;;;69.18;65.35;;;30.80;30.90;;;;;;4967875;28;20034;-77
2022/05/10 11:30:57;;;;;;;69.07;65.07;;;31.00;30.90;;;;;;4951994;28;20176;-77
2022/05/10 11:33:41;;;;;;;33.45;31.30;;;31.00;30.30;;;;;;4962102;28;20038;-76
2022/05/10 11:36:16;;;;;;;32.97;30.65;;;31.00;31.30;;;;;;4968947;28;20392;-77
2022/05/10 11:38:57;;;;;;;49.15;46.40;;;31.10;30.40;;;;;;5008739;28;20049;-78
2022/05/10 11:41:35;;;;;;;75.43;70.93;;;31.00;30.60;;;;;;5009642;28;20042;-77
2022/05/10 11:44:20;;;;;;;33.03;31.23;;;30.90;30.90;;;;;;5007979;28;20041;-76
2022/05/10 11:47:24;;;;;;;32.65;30.63;;;30.80;30.70;;;;;;5012085;28;20037;-76
2022/05/10 11:50:23;;;;;;;45.08;42.67;;;30.80;31.60;;;;;;5006581;28;20029;-81
2022/05/10 11:52:49;;;;;;;34.03;32.03;;;30.90;31.30;;;;;;5007994;28;20068;-79
2022/05/10 11:55:31;;;;;;;53.58;50.60;;;30.90;31.50;;;;;;5007650;28;20405;-77
2022/05/10 11:57:59;;;;;;;51.70;48.80;;;30.90;31.00;;;;;;5006473;28;20039;-77
2022/05/10 12:00:31;;;;;;;73.93;69.68;;;31.00;31.00;;;;;;5007394;28;20040;-77
2022/05/10 12:02:58;;;;;;;43.80;41.25;;;31.00;31.10;;;;;;5008380;28;20029;-77
2022/05/10 12:05:28;;;;;;;41.95;39.22;;;31.00;30.60;;;;;;5008366;28;20414;-77
2022/05/10 12:07:56;;;;;;;44.85;42.28;;;31.00;30.80;;;;;;5008435;28;20038;-77
2022/05/10 12:10:22;;;;;;;77.25;72.97;;;31.10;30.30;;;;;;5006911;28;20038;-77
2022/05/10 12:13:00;;;;;;;56.33;53.28;;;31.00;30.00;;;;;;5004498;28;20380;-77
2022/05/10 12:21:25;;;;;;;;;;;30.80;29.60;;;;;;5015042;28;20057;-77
2022/05/10 12:24:07;;;;;;;37.15;34.55;;;30.80;31.40;;;;;;4988161;28;19910;-77
2022/05/10 12:26:45;;;;;;;34.22;32.40;;;30.80;30.00;;;;;;5004100;28;20021;-77
2022/05/10 12:29:40;;;;;;;34.80;32.88;;;30.80;30.20;;;;;;5009673;28;20022;-77
2022/05/10 12:32:19;;;;;;;33.25;31.40;;;30.80;31.30;;;;;;5012381;28;20479;-77
2022/05/10 12:34:54;;;;;;;42.63;40.08;;;31.00;31.40;;;;;;5011676;28;20042;-77
2022/05/10 12:37:29;;;;;;;51.78;48.47;;;31.10;30.50;;;;;;5012095;28;20493;-77
2022/05/10 12:40:01;;;;;;;34.03;32.08;;;31.20;30.30;;;;;;5013137;28;20034;-78
2022/05/10 12:42:33;;;;;;;39.55;37.45;;;31.20;30.20;;;;;;5013508;28;20467;-79
2022/05/10 12:45:33;;;;;;;59.80;56.55;;;31.40;30.00;;;;;;5007551;28;20034;-79
2022/05/10 12:48:06;;;;;;;42.13;39.75;;;31.30;30.00;;;;;;5030994;28;20037;-79
2022/05/10 12:50:33;;;;;;;85.47;80.72;;;31.20;30.50;;;;;;5059022;28;20036;-79
2022/05/10 12:52:59;;;;;;;38.40;36.30;;;31.20;30.70;;;;;;5029139;28;20108;-79
2022/05/10 12:55:26;;;;;;;36.45;34.45;;;31.20;30.80;;;;;;5032688;28;20028;-78
2022/05/10 12:58:14;;;;;;;53.08;50.05;;;31.20;30.50;;;;;;5030838;28;20041;-79
2022/05/10 13:00:43;;;;;;;58.47;55.15;;;31.20;30.60;;;;;;5045687;28;20112;-78
2022/05/10 13:03:22;;;;;;;98.17;91.87;;;31.20;30.50;;;;;;5028782;28;20033;-79
2022/05/10 13:06:06;;;;;;;57.05;53.63;;;31.20;30.50;;;;;;5030363;28;20466;-79
2022/05/10 13:08:43;;;;;;;41.42;38.90;;;31.10;30.50;;;;;;5031486;28;20037;-79